sensor_id;sensor_type;location;lat;lon;timestamp;pressure;altitude;pressure_sealevel;temperature;humidity
51297;BME280;37380;45.186;9.792;2022-07-22T00:00:43;101006.41;;;27.58;61.79
51297;BME280;37380;45.186;9.792;2022-07-22T00:03:12;101001.44;;;27.73;60.51
51297;BME280;37380;45.186;9.792;2022-07-22T00:05:39;101010.59;;;27.96;60.10
51297;BME280;37380;45.186;9.792;2022-07-22T00:08:05;101007.19;;;27.91;60.09
51297;BME280;37380;45.186;9.792;2022-07-22T00:10:32;101004.13;;;27.73;61.24
51297;BME280;37380;45.186;9.792;2022-07-22T00:13:06;101003.97;;;27.80;60.74
51297;BME280;37380;45.186;9.792;2022-07-22T00:16:00;101002.50;;;27.68;61.18
51297;BME280;37380;45.186;9.792;2022-07-22T00:18:27;101006.47;;;27.56;61.20
51297;BME280;37380;45.186;9.792;2022-07-22T00:20:55;101003.31;;;27.42;62.07
51297;BME280;37380;45.186;9.792;2022-07-22T00:23:22;101007.81;;;27.41;61.83
51297;BME280;37380;45.186;9.792;2022-07-22T00:25:49;101005.59;;;27.26;62.64
51297;BME280;37380;45.186;9.792;2022-07-22T00:28:16;101009.34;;;27.20;62.61
51297;BME280;37380;45.186;9.792;2022-07-22T00:30:43;101012.63;;;27.30;62.13
51297;BME280;37380;45.186;9.792;2022-07-22T00:33:10;101012.75;;;27.25;61.52
51297;BME280;37380;45.186;9.792;2022-07-22T00:35:37;101008.88;;;27.36;61.05
51297;BME280;37380;45.186;9.792;2022-07-22T00:38:09;101016.28;;;27.27;61.76
51297;BME280;37380;45.186;9.792;2022-07-22T00:40:36;101006.28;;;27.33;61.59
51297;BME280;37380;45.186;9.792;2022-07-22T00:43:03;101016.38;;;27.24;61.64
51297;BME280;37380;45.186;9.792;2022-07-22T00:45:29;101012.94;;;27.19;61.68
51297;BME280;37380;45.186;9.792;2022-07-22T00:47:59;101015.22;;;27.33;61.31
51297;BME280;37380;45.186;9.792;2022-07-22T00:50:33;101014.47;;;26.97;62.88
51297;BME280;37380;45.186;9.792;2022-07-22T00:53:36;101010.34;;;27.16;61.58
51297;BME280;37380;45.186;9.792;2022-07-22T00:56:31;101020.06;;;27.20;61.14
51297;BME280;37380;45.186;9.792;2022-07-22T00:59:00;101017.31;;;27.23;60.85
51297;BME280;37380;45.186;9.792;2022-07-22T01:01:28;101013.00;;;27.18;61.28
51297;BME280;37380;45.186;9.792;2022-07-22T01:03:55;101014.81;;;27.17;61.41
51297;BME280;37380;45.186;9.792;2022-07-22T01:06:30;101015.66;;;27.18;61.63
51297;BME280;37380;45.186;9.792;2022-07-22T01:08:57;101018.69;;;27.37;60.66
51297;BME280;37380;45.186;9.792;2022-07-22T01:11:26;101014.44;;;27.29;60.68
51297;BME280;37380;45.186;9.792;2022-07-22T01:13:53;101018.25;;;27.21;60.59
51297;BME280;37380;45.186;9.792;2022-07-22T01:16:21;101018.53;;;27.10;61.53
51297;BME280;37380;45.186;9.792;2022-07-22T01:18:48;101018.38;;;27.16;61.01
51297;BME280;37380;45.186;9.792;2022-07-22T01:21:22;101013.00;;;27.18;60.44
51297;BME280;37380;45.186;9.792;2022-07-22T01:24:16;101018.28;;;27.19;60.42
51297;BME280;37380;45.186;9.792;2022-07-22T01:26:43;101020.22;;;27.14;60.18
51297;BME280;37380;45.186;9.792;2022-07-22T01:29:10;101007.97;;;27.04;60.36
51297;BME280;37380;45.186;9.792;2022-07-22T01:31:38;101008.72;;;26.78;61.71
51297;BME280;37380;45.186;9.792;2022-07-22T01:34:05;101015.31;;;26.64;62.21
51297;BME280;37380;45.186;9.792;2022-07-22T01:36:35;101014.91;;;26.46;62.81
51297;BME280;37380;45.186;9.792;2022-07-22T01:39:02;101009.56;;;26.46;63.21
51297;BME280;37380;45.186;9.792;2022-07-22T01:41:29;101013.25;;;26.41;63.47
51297;BME280;37380;45.186;9.792;2022-07-22T01:43:57;101016.75;;;26.43;63.27
51297;BME280;37380;45.186;9.792;2022-07-22T01:46:24;101020.47;;;26.38;63.89
51297;BME280;37380;45.186;9.792;2022-07-22T01:48:51;101015.06;;;26.39;63.22
51297;BME280;37380;45.186;9.792;2022-07-22T01:51:26;101015.06;;;26.39;63.89
51297;BME280;37380;45.186;9.792;2022-07-22T01:54:28;101014.22;;;26.37;63.66
51297;BME280;37380;45.186;9.792;2022-07-22T01:57:22;101027.69;;;26.34;63.77
51297;BME280;37380;45.186;9.792;2022-07-22T01:59:51;101023.22;;;26.35;63.16
51297;BME280;37380;45.186;9.792;2022-07-22T02:02:18;101016.75;;;26.43;62.63
51297;BME280;37380;45.186;9.792;2022-07-22T02:04:46;101021.88;;;26.53;61.81
51297;BME280;37380;45.186;9.792;2022-07-22T02:07:13;101023.66;;;26.54;61.66
51297;BME280;37380;45.186;9.792;2022-07-22T02:09:40;101023.75;;;26.51;62.07
51297;BME280;37380;45.186;9.792;2022-07-22T02:12:07;101023.88;;;26.45;61.98
51297;BME280;37380;45.186;9.792;2022-07-22T02:14:41;101027.16;;;26.20;63.24
51297;BME280;37380;45.186;9.792;2022-07-22T02:17:08;101020.91;;;26.21;63.35
51297;BME280;37380;45.186;9.792;2022-07-22T02:19:44;101019.19;;;26.18;63.59
51297;BME280;37380;45.186;9.792;2022-07-22T02:22:41;101019.94;;;26.24;63.07
51297;BME280;37380;45.186;9.792;2022-07-22T02:25:08;101025.72;;;26.07;63.56
51297;BME280;37380;45.186;9.792;2022-07-22T02:27:35;101017.84;;;26.01;63.62
51297;BME280;37380;45.186;9.792;2022-07-22T02:30:02;101023.94;;;26.07;63.51
51297;BME280;37380;45.186;9.792;2022-07-22T02:32:29;101014.41;;;25.95;64.24
51297;BME280;37380;45.186;9.792;2022-07-22T02:34:56;101024.56;;;26.17;63.14
51297;BME280;37380;45.186;9.792;2022-07-22T02:37:24;101020.31;;;26.08;63.55
51297;BME280;37380;45.186;9.792;2022-07-22T02:39:51;101021.28;;;26.06;63.85
51297;BME280;37380;45.186;9.792;2022-07-22T02:42:18;101023.13;;;26.04;63.86
51297;BME280;37380;45.186;9.792;2022-07-22T02:44:49;101024.19;;;25.96;63.98
51297;BME280;37380;45.186;9.792;2022-07-22T02:51:49;101033.59;;;25.74;65.20
51297;BME280;37380;45.186;9.792;2022-07-22T02:54:43;101030.31;;;25.63;65.79
51297;BME280;37380;45.186;9.792;2022-07-22T02:57:44;101026.28;;;25.82;64.79
51297;BME280;37380;45.186;9.792;2022-07-22T03:00:44;101031.91;;;25.68;65.32
51297;BME280;37380;45.186;9.792;2022-07-22T03:03:54;101031.53;;;25.46;66.17
51297;BME280;37380;45.186;9.792;2022-07-22T03:06:32;101028.22;;;25.34;66.87
51297;BME280;37380;45.186;9.792;2022-07-22T03:09:05;101039.03;;;25.29;67.35
51297;BME280;37380;45.186;9.792;2022-07-22T03:11:34;101020.94;;;25.42;66.96
51297;BME280;37380;45.186;9.792;2022-07-22T03:14:08;101042.31;;;25.42;66.85
51297;BME280;37380;45.186;9.792;2022-07-22T03:17:02;101031.88;;;25.29;67.46
51297;BME280;37380;45.186;9.792;2022-07-22T03:19:29;101031.50;;;25.48;66.75
51297;BME280;37380;45.186;9.792;2022-07-22T03:21:57;101031.41;;;25.51;66.83
51297;BME280;37380;45.186;9.792;2022-07-22T03:24:23;101031.66;;;25.40;66.77
51297;BME280;37380;45.186;9.792;2022-07-22T03:26:51;101037.97;;;25.38;66.88
51297;BME280;37380;45.186;9.792;2022-07-22T03:29:18;101037.09;;;25.37;67.24
51297;BME280;37380;45.186;9.792;2022-07-22T03:31:45;101031.22;;;25.18;68.31
51297;BME280;37380;45.186;9.792;2022-07-22T03:34:12;101029.97;;;25.36;67.82
51297;BME280;37380;45.186;9.792;2022-07-22T03:36:47;101035.56;;;25.24;68.86
51297;BME280;37380;45.186;9.792;2022-07-22T03:39:14;101031.66;;;25.40;68.06
51297;BME280;37380;45.186;9.792;2022-07-22T03:41:41;101031.75;;;25.37;68.39
51297;BME280;37380;45.186;9.792;2022-07-22T03:44:14;101033.94;;;25.17;69.24
51297;BME280;37380;45.186;9.792;2022-07-22T03:47:09;101041.28;;;25.05;70.26
51297;BME280;37380;45.186;9.792;2022-07-22T03:49:37;101047.28;;;25.18;69.50
51297;BME280;37380;45.186;9.792;2022-07-22T03:52:05;101043.66;;;25.21;68.83
51297;BME280;37380;45.186;9.792;2022-07-22T03:54:32;101040.06;;;25.22;68.92
51297;BME280;37380;45.186;9.792;2022-07-22T03:57:00;101034.13;;;25.04;69.88
51297;BME280;37380;45.186;9.792;2022-07-22T03:59:27;101040.22;;;25.13;69.79
51297;BME280;37380;45.186;9.792;2022-07-22T04:01:54;101041.78;;;25.24;70.00
51297;BME280;37380;45.186;9.792;2022-07-22T04:04:21;101037.97;;;25.38;69.82
51297;BME280;37380;45.186;9.792;2022-07-22T04:06:48;101036.31;;;25.30;70.23
51297;BME280;37380;45.186;9.792;2022-07-22T04:09:26;101029.81;;;25.42;69.61
51297;BME280;37380;45.186;9.792;2022-07-22T04:11:54;101038.50;;;25.53;69.59
51297;BME280;37380;45.186;9.792;2022-07-22T04:14:24;101038.25;;;25.66;68.80
51297;BME280;37380;45.186;9.792;2022-07-22T04:16:57;101041.69;;;25.71;68.58
51297;BME280;37380;45.186;9.792;2022-07-22T04:20:01;101047.72;;;25.82;67.98
51297;BME280;37380;45.186;9.792;2022-07-22T04:23:14;101045.81;;;25.87;68.07
51297;BME280;37380;45.186;9.792;2022-07-22T04:25:49;101052.03;;;25.89;68.82
51297;BME280;37380;45.186;9.792;2022-07-22T04:38:00;101057.50;;;26.58;65.07
51297;BME280;37380;45.186;9.792;2022-07-22T04:41:14;101067.13;;;26.29;65.97
51297;BME280;37380;45.186;9.792;2022-07-22T04:44:08;101066.16;;;26.32;66.45
51297;BME280;37380;45.186;9.792;2022-07-22T04:46:42;101068.09;;;26.97;63.93
51297;BME280;37380;45.186;9.792;2022-07-22T04:49:36;101069.84;;;27.60;61.13
51297;BME280;37380;45.186;9.792;2022-07-22T04:52:06;101072.00;;;28.35;58.49
51297;BME280;37380;45.186;9.792;2022-07-22T04:54:42;101069.00;;;28.71;56.78
51297;BME280;37380;45.186;9.792;2022-07-22T04:57:09;101075.09;;;29.02;55.78
51297;BME280;37380;45.186;9.792;2022-07-22T04:59:36;101080.06;;;29.62;53.43
51297;BME280;37380;45.186;9.792;2022-07-22T05:02:03;101075.81;;;29.80;52.57
51297;BME280;37380;45.186;9.792;2022-07-22T05:04:30;101077.50;;;29.82;52.15
51297;BME280;37380;45.186;9.792;2022-07-22T05:06:58;101078.88;;;29.70;52.20
51297;BME280;37380;45.186;9.792;2022-07-22T05:09:24;101082.34;;;30.18;51.26
51297;BME280;37380;45.186;9.792;2022-07-22T05:11:51;101076.88;;;30.21;50.36
51297;BME280;37380;45.186;9.792;2022-07-22T05:14:21;101074.03;;;30.24;50.61
51297;BME280;37380;45.186;9.792;2022-07-22T05:16:55;101081.00;;;29.37;54.44
51297;BME280;37380;45.186;9.792;2022-07-22T05:20:11;101077.69;;;30.23;51.52
51297;BME280;37380;45.186;9.792;2022-07-22T05:22:39;101078.84;;;29.94;52.76
51297;BME280;37380;45.186;9.792;2022-07-22T05:25:12;101078.53;;;29.54;54.00
51297;BME280;37380;45.186;9.792;2022-07-22T05:27:48;101068.91;;;28.74;56.89
51297;BME280;37380;45.186;9.792;2022-07-22T05:30:17;101073.69;;;28.11;59.14
51297;BME280;37380;45.186;9.792;2022-07-22T05:32:49;101075.78;;;28.82;57.91
51297;BME280;37380;45.186;9.792;2022-07-22T05:35:24;101076.56;;;29.83;54.15
51297;BME280;37380;45.186;9.792;2022-07-22T05:37:51;101075.06;;;31.25;49.41
51297;BME280;37380;45.186;9.792;2022-07-22T05:40:18;101082.34;;;30.62;51.56
51297;BME280;37380;45.186;9.792;2022-07-22T05:42:46;101079.22;;;30.07;52.56
51297;BME280;37380;45.186;9.792;2022-07-22T05:45:13;101081.97;;;30.92;51.57
51297;BME280;37380;45.186;9.792;2022-07-22T05:47:47;101077.25;;;31.56;49.37
51297;BME280;37380;45.186;9.792;2022-07-22T05:50:42;101077.78;;;32.39;46.41
51297;BME280;37380;45.186;9.792;2022-07-22T05:53:44;101072.88;;;32.47;47.02
51297;BME280;37380;45.186;9.792;2022-07-22T05:56:38;101081.25;;;31.67;47.69
51297;BME280;37380;45.186;9.792;2022-07-22T05:59:06;101086.97;;;31.79;45.83
51297;BME280;37380;45.186;9.792;2022-07-22T06:01:33;101083.41;;;31.98;47.67
51297;BME280;37380;45.186;9.792;2022-07-22T06:04:13;101084.81;;;32.95;45.86
51297;BME280;37380;45.186;9.792;2022-07-22T06:06:41;101090.22;;;32.95;45.12
51297;BME280;37380;45.186;9.792;2022-07-22T06:09:08;101099.16;;;33.81;42.63
51297;BME280;37380;45.186;9.792;2022-07-22T06:11:36;101100.09;;;34.59;39.89
51297;BME280;37380;45.186;9.792;2022-07-22T06:14:03;101104.38;;;33.35;41.74
51297;BME280;37380;45.186;9.792;2022-07-22T06:16:30;101100.22;;;34.72;38.65
51297;BME280;37380;45.186;9.792;2022-07-22T06:19:00;101112.06;;;34.71;39.66
51297;BME280;37380;45.186;9.792;2022-07-22T06:21:28;101115.13;;;33.70;42.90
51297;BME280;37380;45.186;9.792;2022-07-22T06:24:01;101116.75;;;34.06;42.23
51297;BME280;37380;45.186;9.792;2022-07-22T06:26:56;101111.69;;;34.77;40.74
51297;BME280;37380;45.186;9.792;2022-07-22T06:29:24;101116.25;;;33.66;42.27
51297;BME280;37380;45.186;9.792;2022-07-22T06:31:52;101117.44;;;33.27;42.88
51297;BME280;37380;45.186;9.792;2022-07-22T06:34:20;101112.19;;;32.89;44.75
51297;BME280;37380;45.186;9.792;2022-07-22T06:36:58;101119.16;;;33.78;42.85
51297;BME280;37380;45.186;9.792;2022-07-22T06:39:25;101116.59;;;33.42;43.00
51297;BME280;37380;45.186;9.792;2022-07-22T06:42:12;101116.38;;;33.96;42.00
51297;BME280;37380;45.186;9.792;2022-07-22T06:44:58;101113.19;;;34.67;41.27
51297;BME280;37380;45.186;9.792;2022-07-22T06:47:40;101110.09;;;35.76;38.67
51297;BME280;37380;45.186;9.792;2022-07-22T06:50:11;101115.75;;;36.42;36.67
51297;BME280;37380;45.186;9.792;2022-07-22T06:52:40;101110.66;;;35.81;37.06
51297;BME280;37380;45.186;9.792;2022-07-22T06:55:08;101110.94;;;35.48;38.63
51297;BME280;37380;45.186;9.792;2022-07-22T06:57:45;101119.09;;;36.33;37.97
51297;BME280;37380;45.186;9.792;2022-07-22T07:00:40;101122.59;;;35.93;37.60
51297;BME280;37380;45.186;9.792;2022-07-22T07:03:43;101117.16;;;35.79;38.39
51297;BME280;37380;45.186;9.792;2022-07-22T07:06:12;101122.66;;;35.49;38.74
51297;BME280;37380;45.186;9.792;2022-07-22T07:09:00;101123.84;;;35.45;39.05
51297;BME280;37380;45.186;9.792;2022-07-22T07:11:28;101127.38;;;35.61;38.45
51297;BME280;37380;45.186;9.792;2022-07-22T07:13:56;101131.34;;;34.51;41.05
51297;BME280;37380;45.186;9.792;2022-07-22T07:16:22;101138.59;;;33.53;42.97
51297;BME280;37380;45.186;9.792;2022-07-22T07:18:51;101141.97;;;33.41;44.30
51297;BME280;37380;45.186;9.792;2022-07-22T07:21:18;101127.56;;;34.53;43.08
51297;BME280;37380;45.186;9.792;2022-07-22T07:23:46;101136.13;;;35.07;39.03
51297;BME280;37380;45.186;9.792;2022-07-22T07:26:13;101145.81;;;35.85;38.42
51297;BME280;37380;45.186;9.792;2022-07-22T07:28:40;101141.59;;;36.76;36.20
51297;BME280;37380;45.186;9.792;2022-07-22T07:31:25;101136.75;;;35.41;38.87
51297;BME280;37380;45.186;9.792;2022-07-22T07:33:59;101141.69;;;36.20;37.95
51297;BME280;37380;45.186;9.792;2022-07-22T07:36:53;101130.19;;;35.59;39.53
51297;BME280;37380;45.186;9.792;2022-07-22T07:39:28;101136.84;;;34.49;42.21
51297;BME280;37380;45.186;9.792;2022-07-22T07:42:23;101139.69;;;34.16;43.43
51297;BME280;37380;45.186;9.792;2022-07-22T07:44:57;101133.59;;;34.74;42.63
51297;BME280;37380;45.186;9.792;2022-07-22T07:47:59;101142.28;;;35.40;40.74
51297;BME280;37380;45.186;9.792;2022-07-22T07:50:56;101137.25;;;35.48;40.12
51297;BME280;37380;45.186;9.792;2022-07-22T07:53:23;101145.63;;;35.88;38.80
51297;BME280;37380;45.186;9.792;2022-07-22T07:55:50;101135.34;;;35.78;38.61
51297;BME280;37380;45.186;9.792;2022-07-22T07:58:18;101137.06;;;36.62;37.14
51297;BME280;37380;45.186;9.792;2022-07-22T08:00:48;101141.59;;;37.54;36.14
51297;BME280;37380;45.186;9.792;2022-07-22T08:03:21;101133.63;;;36.19;38.21
51297;BME280;37380;45.186;9.792;2022-07-22T08:05:49;101138.31;;;35.45;39.81
51297;BME280;37380;45.186;9.792;2022-07-22T08:08:22;101137.31;;;34.41;42.72
51297;BME280;37380;45.186;9.792;2022-07-22T08:10:53;101139.75;;;35.22;41.19
51297;BME280;37380;45.186;9.792;2022-07-22T08:13:43;101135.66;;;35.15;41.81
51297;BME280;37380;45.186;9.792;2022-07-22T08:16:14;101140.91;;;35.90;39.35
51297;BME280;37380;45.186;9.792;2022-07-22T08:18:41;101143.56;;;33.94;41.96
51297;BME280;37380;45.186;9.792;2022-07-22T08:21:11;101136.53;;;34.39;42.22
51297;BME280;37380;45.186;9.792;2022-07-22T08:23:43;101140.81;;;34.89;41.87
51297;BME280;37380;45.186;9.792;2022-07-22T08:26:11;101144.84;;;34.20;42.10
51297;BME280;37380;45.186;9.792;2022-07-22T08:28:38;101143.34;;;33.32;44.71
51297;BME280;37380;45.186;9.792;2022-07-22T08:31:12;101137.69;;;33.54;44.90
51297;BME280;37380;45.186;9.792;2022-07-22T08:34:17;101135.28;;;35.21;39.94
51297;BME280;37380;45.186;9.792;2022-07-22T08:37:13;101142.13;;;34.05;42.67
51297;BME280;37380;45.186;9.792;2022-07-22T08:39:46;101134.31;;;34.92;40.33
51297;BME280;37380;45.186;9.792;2022-07-22T08:42:48;101137.00;;;33.49;42.94
51297;BME280;37380;45.186;9.792;2022-07-22T08:45:40;101131.31;;;32.86;44.01
51297;BME280;37380;45.186;9.792;2022-07-22T08:48:07;101145.91;;;33.69;41.94
51297;BME280;37380;45.186;9.792;2022-07-22T08:50:52;101143.50;;;34.43;41.67
51297;BME280;37380;45.186;9.792;2022-07-22T08:53:59;101140.22;;;34.22;41.27
51297;BME280;37380;45.186;9.792;2022-07-22T08:56:27;101144.81;;;34.98;41.49
51297;BME280;37380;45.186;9.792;2022-07-22T08:58:54;101142.66;;;33.45;41.45
51297;BME280;37380;45.186;9.792;2022-07-22T09:01:21;101148.69;;;33.51;41.32
51297;BME280;37380;45.186;9.792;2022-07-22T09:03:52;101138.78;;;33.99;40.28
51297;BME280;37380;45.186;9.792;2022-07-22T09:06:26;101143.25;;;34.64;38.07
51297;BME280;37380;45.186;9.792;2022-07-22T09:09:01;101137.34;;;33.61;41.24
51297;BME280;37380;45.186;9.792;2022-07-22T09:12:05;101134.50;;;34.89;37.30
51297;BME280;37380;45.186;9.792;2022-07-22T09:14:59;101136.34;;;34.11;37.64
51297;BME280;37380;45.186;9.792;2022-07-22T09:17:53;101139.72;;;33.49;39.36
51297;BME280;37380;45.186;9.792;2022-07-22T09:20:38;101123.75;;;34.41;37.73
51297;BME280;37380;45.186;9.792;2022-07-22T09:23:24;101135.94;;;34.80;38.04
51297;BME280;37380;45.186;9.792;2022-07-22T09:25:54;101130.94;;;34.11;37.55
51297;BME280;37380;45.186;9.792;2022-07-22T09:28:54;101126.06;;;34.79;36.02
51297;BME280;37380;45.186;9.792;2022-07-22T09:32:15;101123.47;;;34.46;36.03
51297;BME280;37380;45.186;9.792;2022-07-22T09:35:25;101121.28;;;34.37;36.91
51297;BME280;37380;45.186;9.792;2022-07-22T09:40:22;101118.59;;;35.42;34.51
51297;BME280;37380;45.186;9.792;2022-07-22T09:42:51;101115.88;;;35.13;36.09
51297;BME280;37380;45.186;9.792;2022-07-22T09:45:19;101106.56;;;35.17;35.14
51297;BME280;37380;45.186;9.792;2022-07-22T09:47:46;101114.88;;;36.00;33.36
51297;BME280;37380;45.186;9.792;2022-07-22T09:50:33;101108.53;;;35.44;32.24
51297;BME280;37380;45.186;9.792;2022-07-22T09:53:15;101108.75;;;35.55;34.01
51297;BME280;37380;45.186;9.792;2022-07-22T09:56:03;101096.69;;;34.56;35.03
51297;BME280;37380;45.186;9.792;2022-07-22T09:58:36;101102.84;;;35.90;32.92
51297;BME280;37380;45.186;9.792;2022-07-22T10:01:52;101100.66;;;36.23;30.61
51297;BME280;37380;45.186;9.792;2022-07-22T10:04:47;101094.16;;;36.53;30.50
51297;BME280;37380;45.186;9.792;2022-07-22T10:07:22;101092.78;;;36.73;30.89
51297;BME280;37380;45.186;9.792;2022-07-22T10:10:18;101088.34;;;36.85;30.33
51297;BME280;37380;45.186;9.792;2022-07-22T10:12:47;101085.31;;;36.22;31.56
51297;BME280;37380;45.186;9.792;2022-07-22T10:15:15;101080.34;;;35.88;32.20
51297;BME280;37380;45.186;9.792;2022-07-22T10:17:43;101080.19;;;35.33;32.82
51297;BME280;37380;45.186;9.792;2022-07-22T10:20:11;101078.38;;;34.89;33.40
51297;BME280;37380;45.186;9.792;2022-07-22T10:25:05;101076.91;;;35.98;33.27
51297;BME280;37380;45.186;9.792;2022-07-22T10:27:47;101068.78;;;36.25;33.79
51297;BME280;37380;45.186;9.792;2022-07-22T10:30:16;101072.56;;;35.96;30.79
51297;BME280;37380;45.186;9.792;2022-07-22T10:32:43;101064.22;;;36.26;30.06
51297;BME280;37380;45.186;9.792;2022-07-22T10:35:20;101063.88;;;35.62;31.72
51297;BME280;37380;45.186;9.792;2022-07-22T10:38:15;101063.25;;;35.86;32.80
51297;BME280;37380;45.186;9.792;2022-07-22T10:41:02;101064.16;;;36.93;31.15
51297;BME280;37380;45.186;9.792;2022-07-22T10:46:49;101059.41;;;37.22;31.79
51297;BME280;37380;45.186;9.792;2022-07-22T10:49:24;101065.28;;;36.23;29.76
51297;BME280;37380;45.186;9.792;2022-07-22T10:52:32;101059.97;;;36.62;29.21
51297;BME280;37380;45.186;9.792;2022-07-22T10:55:28;101059.34;;;35.90;30.11
51297;BME280;37380;45.186;9.792;2022-07-22T10:57:55;101059.97;;;35.66;29.92
51297;BME280;37380;45.186;9.792;2022-07-22T11:00:22;101056.13;;;35.42;29.55
51297;BME280;37380;45.186;9.792;2022-07-22T11:02:49;101052.94;;;36.05;29.86
51297;BME280;37380;45.186;9.792;2022-07-22T11:05:26;101048.63;;;36.01;29.64
51297;BME280;37380;45.186;9.792;2022-07-22T11:08:26;101047.72;;;36.42;28.75
51297;BME280;37380;45.186;9.792;2022-07-22T11:11:31;101052.16;;;35.62;29.44
51297;BME280;37380;45.186;9.792;2022-07-22T11:13:59;101045.31;;;35.69;29.17
51297;BME280;37380;45.186;9.792;2022-07-22T11:16:27;101035.88;;;36.43;30.06
51297;BME280;37380;45.186;9.792;2022-07-22T11:18:55;101033.84;;;36.59;30.06
51297;BME280;37380;45.186;9.792;2022-07-22T11:21:24;101040.50;;;35.87;29.68
51297;BME280;37380;45.186;9.792;2022-07-22T11:23:56;101035.81;;;36.03;29.94
51297;BME280;37380;45.186;9.792;2022-07-22T11:29:03;101022.25;;;36.43;29.24
51297;BME280;37380;45.186;9.792;2022-07-22T11:31:30;101025.59;;;36.74;28.60
51297;BME280;37380;45.186;9.792;2022-07-22T11:34:04;101016.13;;;36.26;28.87
51297;BME280;37380;45.186;9.792;2022-07-22T11:36:38;101017.28;;;36.62;29.27
51297;BME280;37380;45.186;9.792;2022-07-22T11:39:33;101014.72;;;36.86;28.76
51297;BME280;37380;45.186;9.792;2022-07-22T11:42:00;101016.66;;;36.84;28.13
51297;BME280;37380;45.186;9.792;2022-07-22T11:44:28;101010.25;;;36.72;28.36
51297;BME280;37380;45.186;9.792;2022-07-22T11:47:02;101005.53;;;36.62;28.48
51297;BME280;37380;45.186;9.792;2022-07-22T11:49:56;101006.03;;;37.07;27.44
51297;BME280;37380;45.186;9.792;2022-07-22T11:52:28;100999.94;;;37.03;26.25
51297;BME280;37380;45.186;9.792;2022-07-22T11:55:23;100996.63;;;37.24;25.30
51297;BME280;37380;45.186;9.792;2022-07-22T11:57:49;101000.00;;;36.63;27.14
51297;BME280;37380;45.186;9.792;2022-07-22T12:00:17;100999.91;;;36.78;27.07
51297;BME280;37380;45.186;9.792;2022-07-22T12:02:44;100991.41;;;36.69;25.95
51297;BME280;37380;45.186;9.792;2022-07-22T12:05:11;100994.47;;;37.03;25.63
51297;BME280;37380;45.186;9.792;2022-07-22T12:07:58;100981.31;;;35.77;26.90
51297;BME280;37380;45.186;9.792;2022-07-22T12:10:25;100985.97;;;36.57;26.04
51297;BME280;37380;45.186;9.792;2022-07-22T12:12:58;100976.59;;;35.94;25.23
51297;BME280;37380;45.186;9.792;2022-07-22T12:15:59;100982.56;;;36.53;25.38
51297;BME280;37380;45.186;9.792;2022-07-22T12:19:10;100970.34;;;37.23;25.22
51297;BME280;37380;45.186;9.792;2022-07-22T12:26:56;100972.78;;;36.89;24.08
51297;BME280;37380;45.186;9.792;2022-07-22T12:31:54;100964.84;;;36.86;25.24
51297;BME280;37380;45.186;9.792;2022-07-22T12:34:31;100963.31;;;36.69;24.65
51297;BME280;37380;45.186;9.792;2022-07-22T12:36:59;100959.16;;;36.76;24.29
51297;BME280;37380;45.186;9.792;2022-07-22T12:39:27;100953.03;;;37.11;26.08
51297;BME280;37380;45.186;9.792;2022-07-22T12:41:54;100964.34;;;37.17;25.62
51297;BME280;37380;45.186;9.792;2022-07-22T12:44:27;100959.59;;;36.70;25.43
51297;BME280;37380;45.186;9.792;2022-07-22T12:47:41;100946.94;;;36.82;26.92
51297;BME280;37380;45.186;9.792;2022-07-22T12:50:19;100946.94;;;36.82;26.83
51297;BME280;37380;45.186;9.792;2022-07-22T12:52:47;100942.81;;;36.89;26.04
51297;BME280;37380;45.186;9.792;2022-07-22T12:55:35;100941.94;;;36.76;26.14
51297;BME280;37380;45.186;9.792;2022-07-22T12:58:03;100943.84;;;36.22;27.18
51297;BME280;37380;45.186;9.792;2022-07-22T13:00:32;100938.78;;;36.56;28.68
51297;BME280;37380;45.186;9.792;2022-07-22T13:02:59;100944.97;;;36.45;26.98
51297;BME280;37380;45.186;9.792;2022-07-22T13:05:27;100938.69;;;36.83;26.35
51297;BME280;37380;45.186;9.792;2022-07-22T13:07:54;100933.34;;;36.56;25.88
51297;BME280;37380;45.186;9.792;2022-07-22T13:10:21;100931.13;;;36.23;26.85
51297;BME280;37380;45.186;9.792;2022-07-22T13:12:49;100933.44;;;36.67;26.31
51297;BME280;37380;45.186;9.792;2022-07-22T13:15:16;100927.44;;;36.88;25.54
51297;BME280;37380;45.186;9.792;2022-07-22T13:17:50;100915.16;;;37.32;25.99
51297;BME280;37380;45.186;9.792;2022-07-22T13:20:50;100918.25;;;37.14;25.78
51297;BME280;37380;45.186;9.792;2022-07-22T13:23:45;100918.59;;;36.33;25.21
51297;BME280;37380;45.186;9.792;2022-07-22T13:26:12;100930.06;;;36.77;24.86
51297;BME280;37380;45.186;9.792;2022-07-22T13:28:39;100920.06;;;36.77;25.39
51297;BME280;37380;45.186;9.792;2022-07-22T13:31:05;100914.69;;;36.50;25.41
51297;BME280;37380;45.186;9.792;2022-07-22T13:33:32;100908.56;;;36.08;24.77
51297;BME280;37380;45.186;9.792;2022-07-22T13:36:00;100893.38;;;35.78;26.09
51297;BME280;37380;45.186;9.792;2022-07-22T13:38:27;100900.69;;;35.91;26.08
51297;BME280;37380;45.186;9.792;2022-07-22T13:40:57;100909.25;;;36.37;24.88
51297;BME280;37380;45.186;9.792;2022-07-22T13:43:24;100908.50;;;36.22;24.67
51297;BME280;37380;45.186;9.792;2022-07-22T13:45:52;100912.34;;;36.58;25.27
51297;BME280;37380;45.186;9.792;2022-07-22T13:48:25;100901.94;;;36.50;24.12
51297;BME280;37380;45.186;9.792;2022-07-22T13:51:26;100901.53;;;36.44;24.39
51297;BME280;37380;45.186;9.792;2022-07-22T13:54:27;100903.72;;;36.64;25.27
51297;BME280;37380;45.186;9.792;2022-07-22T13:57:22;100894.16;;;36.71;25.37
51297;BME280;37380;45.186;9.792;2022-07-22T13:59:49;100905.91;;;36.34;25.04
51297;BME280;37380;45.186;9.792;2022-07-22T14:02:16;100900.13;;;36.77;24.36
51297;BME280;37380;45.186;9.792;2022-07-22T14:04:43;100892.06;;;37.01;25.33
51297;BME280;37380;45.186;9.792;2022-07-22T14:07:10;100906.19;;;37.06;24.53